Sebastian Dos Santos

Olheiro - Santos Laguna
3 Dez 2028
Domingo
Processo

Personalidade

Adaptabilidade (16) Ambição (16) Controvérsia (18) Lealdade (10) Pressão (1) Profissionalismo (6) Espírito Esportivo (20) Temperamento (4)

Perfil

Estilo de Treinamento Democrático
Licença Continental A
Determinação 7
Gestão de Pessoas 11
Motivação 12
Disciplina 9
Satisfação no Trabalho
100%
Fadiga
0%
Função Olheiro
Salário 65.5K p/s
Contrato 14.03.2030

Desempenho

Comportamento Bom
Eficácia do Treinamento
36%
Desenvolvimento do Jogador
45%
Prevenção de Lesões
30%
Implementação Tática
35%

Eventos Recentes

Participou de uma reunião de recrutamento agora
Participou de uma reunião de recrutamento 7d atrás
Participou de uma reunião de recrutamento 7d atrás
Recomendou um alvo de transferência 7d atrás
Participou de uma reunião de recrutamento 14d atrás
Participou de uma reunião de recrutamento 14d atrás
Recomendou um alvo de transferência 14d atrás
Recomendou um alvo de transferência 21d atrás

Monitorando agora

92
Jogador Clube Status Habilidade Confiança Observado Última observação Último voto
Tyler Fletcher Rotherham United Ativo 105 / 127 40% 4 03.07.2028 -
Makar Vysochenko Spartak Moscow Ativo 91 / 103 40% 1 03.07.2028 -
Cheveyo Tsawa Club Brugge Ativo 122 / 131 40% 5 27.06.2028 -
Christos Mouzakitis Hull City Ativo 140 / 139 40% 2 27.06.2028 -
Trey Nyoni Rotherham United Ativo 140 / 148 40% 3 27.06.2028 -
Francisco Herrera Veracruz Relatório pronto 132 / 130 72% 1 26.06.2028 -
Jan Bürger Northampton Town Ativo 122 / 128 40% 6 16.06.2028 -
Jorge Salinas Racing Santander Ativo 129 / 137 40% 3 16.06.2028 -
Kelian Le Pironnec Mirandés Ativo 93 / 106 40% 1 16.06.2028 -
Carlos Gutiérrez Dorados Relatório pronto 120 / 117 72% 1 12.06.2028 -
Honest Ahanor Atalanta Ativo 144 / 135 40% 3 31.05.2028 -
Konta Ismaily Ativo 108 / 100 40% 2 31.05.2028 -
Celías Ingenthron Platense Ativo 121 / 125 40% 3 30.05.2028 -
Lucas Høgsberg RC Strasbourg Ativo 153 / 142 40% 2 28.05.2028 -
Riquelme Thompson-Jones Accrington Stanley Ativo 105 / 122 40% 4 28.05.2028 -
Tobías Ramírez River Plate Ativo 124 / 130 40% 3 28.05.2028 -
Lamine Bèye Portimonense Ativo 110 / 122 40% 3 26.05.2028 -
Josh Nichols Oldham Athletic Ativo 123 / 133 40% 3 24.05.2028 -
Jorthy Mokio ADO Den Haag Ativo 140 / 141 40% 3 20.05.2028 -
Bernardo Lima Porto Ativo 103 / 114 40% 4 19.05.2028 -
Daniel Banjaqui Benfica Ativo 115 / 126 40% 2 17.05.2028 -
Martim Cunha Porto Ativo 100 / 119 40% 2 08.05.2028 -
Abubakar Adams Aduana Stars Ativo 95 / 85 40% 2 07.05.2028 -
Kiani Inge Groningen Ativo 115 / 126 40% 1 06.05.2028 -
Amine Boukamir Charleroi Ativo 98 / 102 40% 1 03.05.2028 -
Buba Sangaré Elche Ativo 136 / 143 40% 2 02.05.2028 -
Andrija Bulatović Chamois Niortais Ativo 128 / 137 40% 1 17.04.2028 -
Giovanni Leoni Lincoln City Ativo 131 / 138 40% 1 03.04.2028 -
Matvey Bardachev Zenit Ativo 97 / 108 40% 2 25.03.2028 -
Tobiáš Pališčák Zlin Ativo 95 / 104 40% 1 23.03.2028 -
Nicolas Sport Recife Ativo 100 / 118 40% 1 18.03.2028 -
Marco Farfan Tigres Perdido 118 / 123 69% 1 10.01.2028 -
Nicolás Ibáñez Cruz Azul Ativo 142 / 132 69% 1 05.07.2027 Aprovar
Henrique Silva Santa Clara Ativo 111 / 110 40% 2 24.05.2027 -
Zane Albarus Shrewsbury Town Ativo 88 / 98 40% 1 24.05.2027 -
Kazunari Kita Real Sociedad Ativo 96 / 111 40% 2 16.05.2027 -
Victor Hernandez Santa Fe Ativo 119 / 126 40% 2 16.05.2027 -
Ezra Mayers West Ham United Ativo 115 / 120 40% 1 16.05.2027 -
Samuele di Benedetto Twente Ativo 108 / 118 40% 2 14.05.2027 -
Gonçalo Oliveira Benfica Ativo 121 / 109 40% 3 12.05.2027 -
Chari Giwa US Bougouni Ativo 88 / 90 40% 1 12.05.2027 -
Jenson Jones Walsall Ativo 82 / 101 40% 2 09.05.2027 -
Caleb Yirenkyi Coventry City Ativo 145 / 138 40% 2 06.05.2027 -
Rivaldo Mkhize Black Aces Ativo 71 / 97 40% 1 06.05.2027 -
Eliás Montiel Borussia Dortmund Ativo 132 / 140 40% 2 05.05.2027 -
Miguel Figueiredo Benfica Ativo 102 / 112 40% 1 03.05.2027 -
Afriyie Sulemana WAFA Ativo 76 / 91 40% 1 30.04.2027 -
Louis Leroux FC Nantes Ativo 125 / 121 40% 1 26.04.2027 -
Yassine Khalifi Charleroi Ativo 99 / 119 40% 1 16.04.2027 -
Lucas Agazzi Villarreal Ativo 133 / 122 40% 1 12.04.2027 -
James Dornelly Peterborough United Ativo 96 / 104 40% 1 07.04.2027 -
Marcelo Allende Mamelodi Sundowns Ativo 142 / 134 40% 2 25.01.2027 -
Dara O'Shea Ipswich Town Ativo 131 / 136 40% 1 12.01.2027 -
Maicon Levski Ativo 124 / 127 40% 1 12.01.2027 -
Jackson Porozo Tijuana Ativo 121 / 121 40% 1 12.01.2027 -
Justo Giani Umraniyespor Ativo 131 / 127 40% 2 03.01.2027 -
Luis Caicedo Spartak 1918 Ativo 101 / 86 40% 1 31.12.2026 -
Joe Gelhardt Hull City Ativo 134 / 131 40% 1 31.12.2026 -
Manu Morlanes Mallorca Ativo 145 / 142 40% 6 29.12.2026 -
Paulo Victor Queretaro Ativo 111 / 119 40% 1 29.12.2026 -
Ilyas Ansah Hull City Ativo 128 / 143 40% 1 29.12.2026 -
Scott Twine Bristol City Ativo 126 / 128 40% 2 23.12.2026 -
Alexander Díaz Deportivo Riestra Ativo 111 / 123 40% 1 22.12.2026 -
Brian Gutiérrez Guadalajara Ativo 131 / 129 40% 1 19.12.2026 -
Tyrhys Dolan Espanyol Ativo 142 / 143 40% 1 19.12.2026 -
Omar Campos Cruz Azul Ativo 128 / 127 40% 1 18.12.2026 -
Juan Bisanz Huracán Ativo 129 / 124 40% 3 15.12.2026 -
Jaminton Campaz Rosario Central Ativo 118 / 125 40% 1 15.12.2026 -
Alan Lescano Argentinos Juniors Ativo 125 / 131 40% 1 12.12.2026 -
Franco Watson Lanús Ativo 117 / 126 40% 1 12.12.2026 -
Finn Azaz Southampton Ativo 143 / 123 40% 3 10.12.2026 -
Bradley Zwane SuperSport United Ativo 123 / 117 40% 2 10.12.2026 -
Armstrong Oko-Flex Levski Ativo 116 / 115 40% 1 10.12.2026 -
Oswin Appollis Orlando Pirates Ativo 121 / 113 40% 2 07.12.2026 -
Jack McGlynn Stoke City Ativo 123 / 133 40% 1 02.12.2026 -
Brian Rodríguez Club America Ativo 123 / 124 40% 1 02.12.2026 -
Daniel Kyerewaa Reading Ativo 120 / 117 40% 1 29.11.2026 -
Carlos Álvarez Club America Ativo 147 / 141 40% 4 21.11.2026 -
Alejandro Pozo Standard Liege Ativo 135 / 117 40% 2 20.11.2026 -
Franco Zapiola Platense Ativo 129 / 125 40% 2 20.11.2026 -
Nicolás Retamar Ferro Carril Oeste Ativo 110 / 109 40% 1 16.11.2026 -
Ramiro Ruiz Rodríguez Atlético Tucumán Ativo 123 / 123 40% 1 16.11.2026 -
Thomas Carrique Andorra Ativo 104 / 124 40% 1 14.11.2026 -
Alejo Cruz Juventud Ativo 124 / 114 40% 1 14.11.2026 -
Elías López Aldosivi Ativo 117 / 118 40% 1 12.11.2026 -
Alexis Cuello San Lorenzo Ativo 128 / 128 40% 2 11.11.2026 -
Reda Khadra Qarabag Ativo 137 / 121 40% 1 11.11.2026 -
Franco Ibarra Rosario Central Ativo 120 / 128 40% 1 09.11.2026 -
Gastón Benedetti Estudiantes Ativo 117 / 128 40% 1 09.11.2026 -
Rick Talleres Ativo 123 / 118 40% 1 07.11.2026 -
Alex Luna Instituto Ativo 136 / 136 40% 1 03.11.2026 -
Carlos Forbs Club Brugge Ativo 122 / 126 40% 1 03.11.2026 Mais informações